Time;durP1;ratioP1;P1;durP2;ratioP2;P2;SDS_P1;SDS_P2;PMS_P1;PMS_P2;Temp;Humidity;BMP_temperature;BMP_pressure;BME280_temperature;BME280_humidity;BME280_pressure;Samples;Min_cycle;Max_cycle;Signal;HPM_P1;HPM_P2
2022/12/28 15:16:04;;;;;;;7.17;3.10;;;;;;;;;;5090839;27;20284;-83
2022/12/28 15:18:30;;;;;;;4.97;3.20;;;;;;;;;;5089767;28;20178;-87
2022/12/28 15:20:56;;;;;;;7.00;3.00;;;;;;;;;;5090144;28;20176;-87
2022/12/28 15:23:22;;;;;;;8.10;3.23;;;;;;;;;;5090591;28;20200;-88
2022/12/28 15:25:50;;;;;;;6.80;2.80;;;;;;;;;;5086683;28;20175;-88
2022/12/28 15:28:16;;;;;;;7.50;3.07;;;;;;;;;;5073451;28;20185;-87
2022/12/28 15:30:43;;;;;;;9.07;2.90;;;;;;;;;;5070350;28;20179;-88
2022/12/28 15:33:09;;;;;;;5.67;2.87;;;;;;;;;;5090136;28;20179;-87
2022/12/28 15:35:36;;;;;;;4.87;2.90;;;;;;;;;;5090433;28;20210;-88
2022/12/28 15:38:02;;;;;;;5.93;2.43;;;;;;;;;;5087290;28;20205;-87
2022/12/28 15:40:28;;;;;;;9.90;2.60;;;;;;;;;;5070284;28;20183;-87
2022/12/28 15:42:54;;;;;;;6.90;2.80;;;;;;;;;;5079365;28;20170;-86
2022/12/28 15:45:20;;;;;;;7.97;3.03;;;;;;;;;;5089924;28;20189;-86
2022/12/28 15:47:46;;;;;;;12.20;3.10;;;;;;;;;;5077651;28;20211;-87
2022/12/28 15:50:12;;;;;;;7.10;3.00;;;;;;;;;;5053339;28;20198;-87
2022/12/28 15:52:39;;;;;;;5.77;2.80;;;;;;;;;;5069801;28;20215;-90
2022/12/28 15:55:05;;;;;;;7.23;2.73;;;;;;;;;;5083056;28;20202;-90
2022/12/28 15:57:31;;;;;;;8.57;2.83;;;;;;;;;;5089737;28;20183;-90
2022/12/28 15:59:57;;;;;;;8.07;3.03;;;;;;;;;;5089878;28;20183;-89
2022/12/28 16:02:23;;;;;;;4.80;2.90;;;;;;;;;;5089576;28;20179;-88
2022/12/28 16:04:49;;;;;;;7.57;3.20;;;;;;;;;;5077201;28;20194;-88
2022/12/28 16:07:17;;;;;;;7.83;3.40;;;;;;;;;;5062788;28;20197;-87
2022/12/28 16:09:43;;;;;;;5.87;3.10;;;;;;;;;;5069609;28;20176;-87
2022/12/28 16:12:10;;;;;;;4.30;2.63;;;;;;;;;;5069559;28;20190;-86
2022/12/28 16:14:36;;;;;;;5.10;2.50;;;;;;;;;;5055787;28;20310;-87
2022/12/28 16:17:02;;;;;;;6.70;2.90;;;;;;;;;;5069379;28;20172;-86
2022/12/28 16:19:28;;;;;;;5.90;2.90;;;;;;;;;;5069077;28;20183;-87
2022/12/28 16:21:55;;;;;;;4.10;2.83;;;;;;;;;;5087823;28;20178;-86
2022/12/28 16:24:21;;;;;;;5.17;2.80;;;;;;;;;;5089119;28;20204;-85
2022/12/28 16:26:48;;;;;;;6.07;3.00;;;;;;;;;;5061871;28;20321;-86
2022/12/28 16:29:14;;;;;;;7.30;3.00;;;;;;;;;;5059028;28;20179;-87
2022/12/28 16:31:40;;;;;;;6.23;3.13;;;;;;;;;;5059226;28;20187;-86
2022/12/28 16:34:07;;;;;;;6.63;2.90;;;;;;;;;;5067646;28;20208;-87
2022/12/28 16:36:34;;;;;;;7.20;3.40;;;;;;;;;;5055676;28;20203;-90
2022/12/28 16:39:02;;;;;;;8.40;3.17;;;;;;;;;;5055839;28;20266;-89
2022/12/28 16:41:28;;;;;;;8.00;3.10;;;;;;;;;;5060474;28;20175;-89
2022/12/28 16:44:00;;;;;;;6.83;3.07;;;;;;;;;;5059557;28;20188;-88
2022/12/28 16:46:26;;;;;;;5.47;3.40;;;;;;;;;;5062460;28;20294;-88
2022/12/28 16:48:52;;;;;;;5.77;3.00;;;;;;;;;;5064623;28;20184;-88
2022/12/28 16:51:18;;;;;;;5.80;3.23;;;;;;;;;;5058711;28;20178;-88
2022/12/28 16:53:44;;;;;;;5.90;3.20;;;;;;;;;;5058311;28;20180;-86
2022/12/28 16:56:10;;;;;;;6.87;3.37;;;;;;;;;;5056310;28;20184;-90
2022/12/28 16:58:36;;;;;;;6.60;3.40;;;;;;;;;;5063011;28;20184;-88
2022/12/28 17:01:06;;;;;;;7.53;3.43;;;;;;;;;;5075839;28;20270;-89
2022/12/28 17:03:33;;;;;;;6.33;3.30;;;;;;;;;;5075142;28;20205;-89
2022/12/28 17:05:59;;;;;;;5.23;3.10;;;;;;;;;;5075286;28;20183;-88
2022/12/28 17:08:25;;;;;;;5.53;3.00;;;;;;;;;;5065965;28;20183;-90
2022/12/28 17:10:51;;;;;;;6.70;3.40;;;;;;;;;;5054931;28;20211;-91
2022/12/28 17:13:17;;;;;;;6.97;3.47;;;;;;;;;;5038524;28;20188;-91
2022/12/28 17:15:44;;;;;;;6.03;3.37;;;;;;;;;;5051033;28;20228;-89
2022/12/28 17:18:11;;;;;;;7.83;3.30;;;;;;;;;;5074325;28;20183;-90
2022/12/28 17:20:37;;;;;;;7.07;3.77;;;;;;;;;;5064339;28;20256;-90
2022/12/28 17:23:03;;;;;;;7.97;3.57;;;;;;;;;;5058401;28;20209;-89
2022/12/28 17:25:31;;;;;;;7.53;3.83;;;;;;;;;;5062544;28;20203;-90
2022/12/28 17:27:57;;;;;;;6.33;3.57;;;;;;;;;;5064643;28;20186;-91
2022/12/28 17:30:23;;;;;;;5.90;3.67;;;;;;;;;;5074619;28;20198;-90
2022/12/28 17:32:49;;;;;;;4.50;3.57;;;;;;;;;;5068593;28;20266;-92
2022/12/28 17:35:15;;;;;;;6.40;3.93;;;;;;;;;;5054852;28;20280;-90
2022/12/28 17:37:41;;;;;;;7.63;3.93;;;;;;;;;;5055884;28;20200;-91
2022/12/28 17:40:08;;;;;;;7.77;3.73;;;;;;;;;;5074573;28;20172;-93
2022/12/28 17:42:34;;;;;;;7.67;4.10;;;;;;;;;;5074776;28;20175;-91
2022/12/28 17:45:00;;;;;;;7.80;4.27;;;;;;;;;;5074699;28;20186;-92
2022/12/28 17:47:28;;;;;;;6.40;4.10;;;;;;;;;;5057499;28;20234;-92
2022/12/28 17:49:54;;;;;;;8.93;4.50;;;;;;;;;;5041276;28;20189;-89
2022/12/28 17:52:22;;;;;;;7.83;4.50;;;;;;;;;;5074583;28;20183;-89
2022/12/28 17:54:48;;;;;;;6.43;4.23;;;;;;;;;;5072012;28;20203;-91
2022/12/28 17:57:14;;;;;;;10.53;4.10;;;;;;;;;;5054198;28;20180;-90
2022/12/28 17:59:41;;;;;;;7.90;4.40;;;;;;;;;;5037230;28;20211;-88
2022/12/28 18:02:08;;;;;;;6.17;3.53;;;;;;;;;;5054304;28;20176;-88
2022/12/28 18:04:35;;;;;;;5.47;3.77;;;;;;;;;;5054609;28;20191;-90
2022/12/28 18:07:02;;;;;;;6.37;3.93;;;;;;;;;;5069380;28;20184;-87
2022/12/28 18:09:28;;;;;;;8.93;3.90;;;;;;;;;;5070878;28;20179;-89
2022/12/28 18:11:54;;;;;;;6.20;3.77;;;;;;;;;;5070639;28;20195;-88
2022/12/28 18:14:22;;;;;;;5.57;3.60;;;;;;;;;;5070146;28;20263;-90
2022/12/28 18:16:49;;;;;;;6.00;4.07;;;;;;;;;;5072474;28;20183;-89
2022/12/28 18:19:15;;;;;;;7.37;3.63;;;;;;;;;;5054794;28;20180;-89
2022/12/28 18:21:41;;;;;;;6.70;4.17;;;;;;;;;;5053978;28;20188;-88
2022/12/28 18:24:08;;;;;;;6.10;3.67;;;;;;;;;;5037370;28;20188;-88
2022/12/28 18:26:35;;;;;;;5.07;3.50;;;;;;;;;;5059271;28;20219;-89
2022/12/28 18:29:01;;;;;;;6.00;3.40;;;;;;;;;;5064420;28;20210;-88
2022/12/28 18:31:27;;;;;;;4.53;3.47;;;;;;;;;;5057377;28;20179;-88
2022/12/28 18:33:54;;;;;;;5.93;3.50;;;;;;;;;;5073301;28;20213;-88
2022/12/28 18:36:20;;;;;;;4.47;3.83;;;;;;;;;;5073371;28;20380;-88
2022/12/28 18:38:46;;;;;;;6.37;3.57;;;;;;;;;;5072907;28;20176;-89
2022/12/28 18:41:13;;;;;;;7.13;3.83;;;;;;;;;;5037187;28;20278;-89
2022/12/28 18:43:40;;;;;;;4.80;3.07;;;;;;;;;;5064261;28;20183;-89
2022/12/28 18:46:07;;;;;;;4.93;3.63;;;;;;;;;;5063144;28;20203;-90
2022/12/28 18:48:36;;;;;;;8.77;3.60;;;;;;;;;;5072077;28;20229;-90
2022/12/28 18:51:06;;;;;;;3.80;3.23;;;;;;;;;;5059896;28;20187;-91
2022/12/28 18:53:33;;;;;;;8.53;3.50;;;;;;;;;;5056590;28;20253;-91
2022/12/28 18:56:03;;;;;;;4.53;3.00;;;;;;;;;;5064620;28;20203;-90
2022/12/28 18:58:30;;;;;;;4.80;3.40;;;;;;;;;;5064933;28;20179;-91
2022/12/28 19:01:02;;;;;;;5.20;3.70;;;;;;;;;;5053460;28;20180;-90
2022/12/28 19:03:28;;;;;;;5.07;3.73;;;;;;;;;;5053125;28;20180;-90
2022/12/28 19:06:02;;;;;;;5.87;3.50;;;;;;;;;;5055289;28;20188;-89
2022/12/28 19:08:28;;;;;;;6.27;3.40;;;;;;;;;;5066561;28;20184;-90
2022/12/28 19:10:54;;;;;;;6.20;3.80;;;;;;;;;;5053391;28;20194;-89
2022/12/28 19:13:20;;;;;;;6.97;3.90;;;;;;;;;;5053355;28;20220;-87
2022/12/28 19:15:46;;;;;;;5.80;3.57;;;;;;;;;;5052551;28;20228;-86
2022/12/28 19:18:12;;;;;;;5.27;3.97;;;;;;;;;;5073204;28;20211;-88
2022/12/28 19:20:38;;;;;;;5.07;4.00;;;;;;;;;;5073747;28;20175;-87
2022/12/28 19:23:04;;;;;;;4.53;3.50;;;;;;;;;;5072680;28;20175;-88
2022/12/28 19:25:31;;;;;;;4.53;4.13;;;;;;;;;;5056006;28;20183;-86
2022/12/28 19:27:57;;;;;;;7.00;4.00;;;;;;;;;;5050159;28;20188;-87
2022/12/28 19:30:23;;;;;;;5.27;4.30;;;;;;;;;;5045450;28;20192;-88
2022/12/28 19:32:51;;;;;;;5.27;4.60;;;;;;;;;;5069661;28;20202;-89
2022/12/28 19:57:38;;;;;;;;;;;;;;;;;;;;;
2022/12/28 21:57:25;;;;;;;;;;;;;;;;;;;;;
2022/12/28 22:20:28;;;;;;;5.33;4.50;;;;;;;;;;4966226;28;20201;-88
2022/12/28 22:23:22;;;;;;;4.60;4.20;;;;;;;;;;4957115;28;20170;-90
2022/12/28 22:25:56;;;;;;;4.47;4.07;;;;;;;;;;4934964;29;20191;-90
2022/12/28 22:29:06;;;;;;;4.67;4.20;;;;;;;;;;4919477;29;20213;-89
2022/12/28 22:31:45;;;;;;;3.93;3.63;;;;;;;;;;4928858;29;20212;-90
2022/12/28 22:34:44;;;;;;;;;;;;;;;;;;;;;
2022/12/28 22:37:32;;;;;;;4.67;4.27;;;;;;;;;;4929632;29;20191;-90
2022/12/28 22:49:25;;;;;;;4.83;4.20;;;;;;;;;;4922880;29;20196;-90
2022/12/28 22:52:27;;;;;;;;;;;;;;;;;;;;;
2022/12/28 22:55:06;;;;;;;;;;;;;;;;;;;;;
2022/12/28 22:58:25;;;;;;;4.47;4.07;;;;;;;;;;4923034;29;20183;-89
2022/12/28 23:00:39;;;;;;;4.53;3.60;;;;;;;;;;4892516;29;20290;-90
2022/12/28 23:03:26;;;;;;;3.90;3.60;;;;;;;;;;4889484;29;20184;-89
2022/12/28 23:09:35;;;;;;;3.87;3.40;;;;;;;;;;4902897;29;20182;-91
2022/12/28 23:12:25;;;;;;;3.70;3.40;;;;;;;;;;4908942;29;20197;-89
2022/12/28 23:15:24;;;;;;;;;;;;;;;;;;;;;
2022/12/28 23:29:52;;;;;;;3.57;3.27;;;;;;;;;;4921170;29;20187;-89
2022/12/28 23:32:45;;;;;;;3.87;3.50;;;;;;;;;;4954830;28;20255;-89
2022/12/28 23:35:28;;;;;;;;;;;;;;;;;;;;;
2022/12/28 23:38:07;;;;;;;;;;;;;;;;;;;;;
2022/12/28 23:43:35;;;;;;;4.30;3.53;;;;;;;;;;4938393;29;20189;-90
2022/12/28 23:46:13;;;;;;;;;;;;;;;;;;;;;
2022/12/28 23:49:06;;;;;;;3.73;3.43;;;;;;;;;;4959461;29;20171;-91
2022/12/28 23:52:07;;;;;;;;;;;;;;;;;;;;;
2022/12/28 23:55:08;;;;;;;;;;;;;;;;;;;;;
2022/12/28 23:58:08;;;;;;;3.93;3.57;;;;;;;;;;4940049;29;20182;-89
